^^
Your Local Weather - Clay, NY Station Historical Data
Daily Summary for September 26, 2017 Units:  English    Metric   Both
« Previous Day
Next Day »
Daily Weekly Monthly Yearly Custom
  High: Low: Average:
Temperature: 89.0 °F 62.1 °F 72.5 °F
Dew Point: 72.7 °F 60.6 °F 66 °F
Humidity: 95% 46% 82%
Wind Speed: 2.0mph 0.0mph 0.2mph
Wind Gust: 4.0mph - -
Wind- - SE
Pressure: 29.98 in 29.88 in -
Precipitation: 0.00 in    
Historical Graphs
 
 
Tabular Data for September 26, 2017
Time Temperature Dew Point Pressure Wind Wind Speed Wind Gust Humidity Rainfall Rate (Hourly) solar
00:04 66.4 °F 64.3 °F 29.96 in Calm     93% 0.00 in 0 W/m2
00:06 66.4 °F 64.3 °F 29.95 in Calm     93% 0.00 in 0 W/m2
00:12 66.4 °F 64.3 °F 29.95 in Calm     93% 0.00 in 0 W/m2
00:18 66.3 °F 64.2 °F 29.95 in Calm     93% 0.00 in 0 W/m2
00:30 66.1 °F 64.0 °F 29.95 in Calm     93% 0.00 in 0 W/m2
00:36 66.0 °F 63.9 °F 29.95 in Calm     93% 0.00 in 0 W/m2
00:42 65.9 °F 63.8 °F 29.95 in Calm     93% 0.00 in 0 W/m2
00:48 65.8 °F 63.7 °F 29.95 in Calm     93% 0.00 in 0 W/m2
00:54 65.7 °F 63.6 °F 29.95 in Calm     93% 0.00 in 0 W/m2
01:00 65.7 °F 63.6 °F 29.95 in Calm     93% 0.00 in 0 W/m2
01:06 65.6 °F 63.5 °F 29.95 in Calm     93% 0.00 in 0 W/m2
01:12 65.6 °F 63.5 °F 29.95 in Calm     93% 0.00 in 0 W/m2
01:18 65.5 °F 63.4 °F 29.95 in Calm     93% 0.00 in 0 W/m2
01:24 65.6 °F 63.8 °F 29.95 in Calm     94% 0.00 in 0 W/m2
01:30 65.9 °F 64.1 °F 29.95 in Calm     94% 0.00 in 0 W/m2
01:36 66.1 °F 64.3 °F 29.95 in Calm     94% 0.00 in 0 W/m2
01:42 66.1 °F 64.3 °F 29.96 in Calm     94% 0.00 in 0 W/m2
01:48 65.8 °F 64.0 °F 29.96 in Calm     94% 0.00 in 0 W/m2
02:00 65.6 °F 63.8 °F 29.96 in Calm     94% 0.00 in 0 W/m2
02:06 65.5 °F 63.7 °F 29.96 in Calm     94% 0.00 in 0 W/m2
02:12 65.4 °F 63.6 °F 29.95 in Calm     94% 0.00 in 0 W/m2
02:18 65.3 °F 63.5 °F 29.95 in Calm     94% 0.00 in 0 W/m2
02:26 65.2 °F 63.4 °F 29.95 in Calm     94% 0.00 in 0 W/m2
02:32 65.2 °F 63.4 °F 29.95 in Calm     94% 0.00 in 0 W/m2
02:38 65.3 °F 63.5 °F 29.95 in Calm     94% 0.00 in 0 W/m2
02:44 65.2 °F 63.4 °F 29.95 in Calm     94% 0.00 in 0 W/m2
02:56 64.9 °F 63.1 °F 29.96 in Calm     94% 0.00 in 0 W/m2
03:02 64.7 °F 62.9 °F 29.96 in Calm     94% 0.00 in 0 W/m2
03:08 64.6 °F 62.8 °F 29.96 in Calm     94% 0.00 in 0 W/m2
03:14 64.6 °F 62.8 °F 29.96 in Calm     94% 0.00 in 0 W/m2
03:20 64.5 °F 62.7 °F 29.96 in Calm     94% 0.00 in 0 W/m2
03:26 64.3 °F 62.5 °F 29.96 in Calm     94% 0.00 in 0 W/m2
03:32 64.2 °F 62.4 °F 29.96 in Calm     94% 0.00 in 0 W/m2
03:38 64.3 °F 62.5 °F 29.96 in Calm     94% 0.00 in 0 W/m2
03:44 64.3 °F 62.5 °F 29.96 in Calm     94% 0.00 in 0 W/m2
03:50 64.1 °F 62.3 °F 29.96 in Calm     94% 0.00 in 0 W/m2
03:56 64.0 °F 62.2 °F 29.96 in Calm   1.0 mph 94% 0.00 in 0 W/m2
04:02 64.0 °F 62.2 °F 29.96 in Calm     94% 0.00 in 0 W/m2
04:08 63.8 °F 62.0 °F 29.96 in Calm     94% 0.00 in 0 W/m2
04:14 63.8 °F 62.0 °F 29.96 in Calm     94% 0.00 in 0 W/m2
04:20 63.8 °F 62.0 °F 29.96 in Calm     94% 0.00 in 0 W/m2
04:26 63.6 °F 61.8 °F 29.96 in Calm     94% 0.00 in 0 W/m2
04:32 63.4 °F 61.6 °F 29.96 in Calm     94% 0.00 in 0 W/m2
04:38 63.2 °F 61.4 °F 29.96 in Calm     94% 0.00 in 0 W/m2
04:44 63.1 °F 61.3 °F 29.96 in Calm     94% 0.00 in 0 W/m2
04:50 63.2 °F 61.4 °F 29.96 in Calm     94% 0.00 in 0 W/m2
04:56 63.2 °F 61.4 °F 29.96 in Calm     94% 0.00 in 0 W/m2
05:02 63.0 °F 61.2 °F 29.96 in Calm     94% 0.00 in 0 W/m2
05:08 63.0 °F 61.2 °F 29.96 in Calm     94% 0.00 in 0 W/m2
05:14 63.0 °F 61.2 °F 29.96 in Calm     94% 0.00 in 0 W/m2
05:20 62.9 °F 61.1 °F 29.96 in Calm     94% 0.00 in 0 W/m2
05:26 62.8 °F 61.0 °F 29.96 in Calm     94% 0.00 in 0 W/m2
05:32 62.8 °F 61.0 °F 29.96 in Calm     94% 0.00 in 0 W/m2
05:38 62.8 °F 61.0 °F 29.96 in Calm     94% 0.00 in 0 W/m2
05:44 62.8 °F 61.0 °F 29.96 in Calm     94% 0.00 in 0 W/m2
05:50 62.8 °F 61.0 °F 29.96 in Calm     94% 0.00 in 0 W/m2
05:56 62.7 °F 60.9 °F 29.96 in Calm     94% 0.00 in 0 W/m2
06:02 62.7 °F 61.2 °F 29.95 in Calm     95% 0.00 in 0 W/m2
06:08 63.0 °F 61.5 °F 29.95 in Calm     95% 0.00 in 0 W/m2
06:14 62.8 °F 61.3 °F 29.95 in Calm     95% 0.00 in 0 W/m2
06:20 62.7 °F 61.2 °F 29.96 in Calm     95% 0.00 in 0 W/m2
06:26 62.7 °F 61.2 °F 29.96 in Calm     95% 0.00 in 0 W/m2
06:32 62.7 °F 61.2 °F 29.96 in Calm     95% 0.00 in 0 W/m2
06:38 62.5 °F 61.0 °F 29.96 in Calm     95% 0.00 in 0 W/m2
06:44 62.3 °F 60.6 °F 29.96 in Calm     94% 0.00 in 0 W/m2
06:50 62.2 °F 60.8 °F 29.96 in Calm     95% 0.00 in 0 W/m2
06:56 62.2 °F 60.8 °F 29.96 in Calm     95% 0.00 in 0 W/m2
07:02 62.3 °F 60.8 °F 29.96 in Calm     95% 0.00 in 0 W/m2
07:08 62.3 °F 60.8 °F 29.96 in Calm     95% 0.00 in 7 W/m2
07:14 62.1 °F 60.7 °F 29.96 in Calm     95% 0.00 in 11 W/m2
07:16 62.1 °F 60.7 °F 29.97 in Calm     95% 0.00 in 12 W/m2
07:22 62.1 °F 60.7 °F 29.97 in Calm     95% 0.00 in 18 W/m2
07:28 62.2 °F 60.8 °F 29.97 in Calm     95% 0.00 in 23 W/m2
07:34 62.2 °F 60.8 °F 29.97 in Calm     95% 0.00 in 32 W/m2
07:40 62.3 °F 60.8 °F 29.97 in Calm     95% 0.00 in 39 W/m2
07:46 62.6 °F 61.1 °F 29.97 in Calm     95% 0.00 in 42 W/m2
07:52 62.9 °F 61.4 °F 29.97 in Calm     95% 0.00 in 46 W/m2
07:58 63.1 °F 61.6 °F 29.97 in Calm     95% 0.00 in 56 W/m2
08:04 63.4 °F 61.9 °F 29.97 in Calm     95% 0.00 in 65 W/m2
08:10 63.7 °F 62.2 °F 29.97 in Calm     95% 0.00 in 77 W/m2
08:18 64.3 °F 62.8 °F 29.97 in Calm     95% 0.00 in 84 W/m2
08:24 64.8 °F 63.3 °F 29.97 in Calm     95% 0.00 in 102 W/m2
08:30 65.4 °F 63.9 °F 29.97 in Calm     95% 0.00 in 134 W/m2
08:36 65.9 °F 64.4 °F 29.97 in SSE 1.0 mph 3.0 mph 95% 0.00 in 148 W/m2
08:42 66.4 °F 64.9 °F 29.97 in SSE 1.0 mph 1.0 mph 95% 0.00 in 135 W/m2
08:48 66.9 °F 65.4 °F 29.97 in SSE 1.0 mph 1.0 mph 95% 0.00 in 123 W/m2
08:54 67.2 °F 65.7 °F 29.97 in Calm   1.0 mph 95% 0.00 in 134 W/m2
09:00 67.7 °F 66.2 °F 29.97 in Calm     95% 0.00 in 132 W/m2
09:06 67.9 °F 66.1 °F 29.97 in Calm     94% 0.00 in 118 W/m2
09:12 68.3 °F 66.5 °F 29.97 in Calm   1.0 mph 94% 0.00 in 137 W/m2
09:18 68.7 °F 66.3 °F 29.97 in SE 1.0 mph 3.0 mph 92% 0.00 in 165 W/m2
09:24 69.4 °F 66.7 °F 29.97 in SE 1.0 mph 1.0 mph 91% 0.00 in 188 W/m2
09:30 70.0 °F 66.6 °F 29.97 in SE 1.0 mph 1.0 mph 89% 0.00 in 169 W/m2
09:36 70.6 °F 66.5 °F 29.98 in SE 1.0 mph 2.0 mph 87% 0.00 in 195 W/m2
09:42 71.2 °F 66.8 °F 29.97 in SE 1.0 mph 1.0 mph 86% 0.00 in 223 W/m2
09:48 71.8 °F 67.0 °F 29.97 in Calm   1.0 mph 85% 0.00 in 302 W/m2
09:54 72.4 °F 66.9 °F 29.98 in ENE 1.0 mph 3.0 mph 83% 0.00 in 272 W/m2
10:00 72.8 °F 67.0 °F 29.98 in NNE 1.0 mph 2.0 mph 82% 0.00 in 338 W/m2
10:06 73.2 °F 67.0 °F 29.97 in NE 1.0 mph 4.0 mph 81% 0.00 in 271 W/m2
10:12 73.3 °F 66.8 °F 29.97 in NE 2.0 mph 2.0 mph 80% 0.00 in 311 W/m2
10:18 73.9 °F 67.7 °F 29.97 in NE 1.0 mph 2.0 mph 81% 0.00 in 308 W/m2
10:24 74.3 °F 67.7 °F 29.97 in Calm   1.0 mph 80% 0.00 in 323 W/m2
10:30 74.5 °F 67.6 °F 29.97 in NE 1.0 mph 1.0 mph 79% 0.00 in 294 W/m2
10:36 74.7 °F 67.8 °F 29.97 in NE 1.0 mph 2.0 mph 79% 0.00 in 244 W/m2
10:44 75.0 °F 68.0 °F 29.97 in NE 1.0 mph 1.0 mph 79% 0.00 in 236 W/m2
10:50 75.1 °F 67.8 °F 29.97 in NE 1.0 mph 1.0 mph 78% 0.00 in 287 W/m2
10:56 75.4 °F 68.4 °F 29.97 in NE 1.0 mph 1.0 mph 79% 0.00 in 390 W/m2
11:02 75.9 °F 68.9 °F 29.96 in NE 1.0 mph 2.0 mph 79% 0.00 in 374 W/m2
11:08 76.2 °F 69.2 °F 29.96 in NE 1.0 mph 2.0 mph 79% 0.00 in 439 W/m2
11:16 76.8 °F 68.3 °F 29.95 in ENE 2.0 mph 2.0 mph 75% 0.00 in 529 W/m2
11:22 77.8 °F 69.2 °F 29.96 in ENE 2.0 mph 2.0 mph 75% 0.00 in 483 W/m2
11:28 78.9 °F 69.5 °F 29.95 in ENE 1.0 mph 2.0 mph 73% 0.00 in 592 W/m2
11:34 79.9 °F 69.2 °F 29.95 in ENE 1.0 mph 2.0 mph 70% 0.00 in 661 W/m2
11:40 79.7 °F 69.0 °F 29.95 in ENE 1.0 mph 1.0 mph 70% 0.00 in 638 W/m2
11:46 80.0 °F 68.9 °F 29.95 in ENE 1.0 mph 3.0 mph 69% 0.00 in 512 W/m2
11:52 79.9 °F 69.2 °F 29.95 in ENE 1.0 mph 3.0 mph 70% 0.00 in 408 W/m2
11:58 80.1 °F 69.4 °F 29.95 in East 1.0 mph 3.0 mph 70% 0.00 in 410 W/m2
12:04 80.1 °F 68.6 °F 29.95 in East 1.0 mph 3.0 mph 68% 0.00 in 526 W/m2
12:16 80.1 °F 68.2 °F 29.95 in Calm   1.0 mph 67% 0.00 in 441 W/m2
12:22 81.1 °F 69.1 °F 29.95 in Calm   1.0 mph 67% 0.00 in 454 W/m2
12:28 81.0 °F 69.0 °F 29.94 in Calm   1.0 mph 67% 0.00 in 374 W/m2
12:34 81.4 °F 68.9 °F 29.94 in Calm   2.0 mph 66% 0.00 in 336 W/m2
12:40 81.2 °F 68.8 °F 29.94 in Calm     66% 0.00 in 369 W/m2
12:46 81.1 °F 68.2 °F 29.94 in Calm   1.0 mph 65% 0.00 in 374 W/m2
12:52 81.3 °F 68.0 °F 29.94 in North 1.0 mph 3.0 mph 64% 0.00 in 380 W/m2
12:58 81.7 °F 67.9 °F 29.94 in North 1.0 mph 3.0 mph 63% 0.00 in 399 W/m2
13:04 82.1 °F 69.6 °F 29.94 in North 1.0 mph 1.0 mph 66% 0.00 in 394 W/m2
13:10 81.5 °F 69.0 °F 29.93 in Calm     66% 0.00 in 397 W/m2
13:16 81.5 °F 68.1 °F 29.93 in Calm     64% 0.00 in 383 W/m2
13:22 81.5 °F 68.1 °F 29.92 in Calm     64% 0.00 in 429 W/m2
13:28 82.0 °F 70.0 °F 29.92 in Calm     67% 0.00 in 359 W/m2
13:34 82.0 °F 69.5 °F 29.92 in Calm     66% 0.00 in 394 W/m2
13:40 82.6 °F 71.4 °F 29.92 in Calm     69% 0.00 in 715 W/m2
13:46 82.9 °F 69.5 °F 29.92 in Calm     64% 0.00 in 758 W/m2
13:52 83.1 °F 69.2 °F 29.92 in Calm     63% 0.00 in 715 W/m2
13:58 84.7 °F 69.3 °F 29.92 in Calm   1.0 mph 60% 0.00 in 712 W/m2
14:04 85.2 °F 70.2 °F 29.92 in North 1.0 mph 1.0 mph 61% 0.00 in 700 W/m2
14:10 85.6 °F 70.6 °F 29.92 in North 1.0 mph 1.0 mph 61% 0.00 in 694 W/m2
14:16 85.9 °F 71.4 °F 29.91 in SE 1.0 mph 3.0 mph 62% 0.00 in 684 W/m2
14:22 84.9 °F 69.0 °F 29.91 in SE 1.0 mph 1.0 mph 59% 0.00 in 680 W/m2
14:28 86.0 °F 69.0 °F 29.91 in SE 1.0 mph 1.0 mph 57% 0.00 in 671 W/m2
14:34 86.8 °F 72.2 °F 29.91 in Calm   2.0 mph 62% 0.00 in 654 W/m2
14:40 86.5 °F 68.9 °F 29.91 in Calm     56% 0.00 in 594 W/m2
14:46 86.3 °F 69.8 °F 29.91 in Calm   1.0 mph 58% 0.00 in 608 W/m2
14:52 85.6 °F 68.6 °F 29.91 in SE 1.0 mph 2.0 mph 57% 0.00 in 480 W/m2
14:58 85.8 °F 68.3 °F 29.91 in SE 1.0 mph 2.0 mph 56% 0.00 in 499 W/m2
15:04 86.5 °F 70.5 °F 29.91 in Calm   1.0 mph 59% 0.00 in 608 W/m2
15:10 86.9 °F 68.3 °F 29.91 in SE 1.0 mph 4.0 mph 54% 0.00 in 582 W/m2
15:16 86.0 °F 68.0 °F 29.91 in ESE 1.0 mph 4.0 mph 55% 0.00 in 570 W/m2
15:22 86.9 °F 68.8 °F 29.90 in East 1.0 mph 2.0 mph 55% 0.00 in 555 W/m2
15:28 87.5 °F 67.1 °F 29.90 in SSW 1.0 mph 2.0 mph 51% 0.00 in 533 W/m2
15:34 88.0 °F 68.2 °F 29.90 in SSW 1.0 mph 1.0 mph 52% 0.00 in 524 W/m2
15:40 88.2 °F 67.8 °F 29.89 in Calm   1.0 mph 51% 0.00 in 513 W/m2
15:46 88.8 °F 68.9 °F 29.89 in Calm   2.0 mph 52% 0.00 in 497 W/m2
15:52 88.5 °F 68.1 °F 29.89 in Calm     51% 0.00 in 508 W/m2
15:58 89.0 °F 67.9 °F 29.89 in West 1.0 mph 1.0 mph 50% 0.00 in 506 W/m2
16:04 88.7 °F 69.9 °F 29.89 in WNW 1.0 mph 1.0 mph 54% 0.00 in 501 W/m2
16:10 88.6 °F 65.2 °F 29.89 in WNW 1.0 mph 1.0 mph 46% 0.00 in 478 W/m2
16:16 88.3 °F 66.7 °F 29.89 in West 1.0 mph 3.0 mph 49% 0.00 in 485 W/m2
16:22 88.3 °F 67.3 °F 29.89 in South 1.0 mph 1.0 mph 50% 0.00 in 408 W/m2
16:28 88.0 °F 68.2 °F 29.89 in Calm   1.0 mph 52% 0.00 in 269 W/m2
16:34 87.6 °F 67.8 °F 29.89 in Calm     52% 0.00 in 176 W/m2
16:40 87.5 °F 65.4 °F 29.89 in Calm     48% 0.00 in 338 W/m2
16:46 88.0 °F 68.2 °F 29.89 in Calm     52% 0.00 in 357 W/m2
16:52 87.8 °F 65.7 °F 29.89 in Calm     48% 0.00 in 355 W/m2
16:58 87.9 °F 66.4 °F 29.88 in Calm     49% 0.00 in 302 W/m2
17:04 87.9 °F 66.9 °F 29.88 in Calm     50% 0.00 in 197 W/m2
17:10 87.9 °F 69.2 °F 29.88 in Calm     54% 0.00 in 167 W/m2
17:16 87.5 °F 69.3 °F 29.88 in Calm     55% 0.00 in 267 W/m2
17:22 87.0 °F 68.9 °F 29.88 in Calm   1.0 mph 55% 0.00 in 171 W/m2
17:28 86.4 °F 68.8 °F 29.88 in Calm   1.0 mph 56% 0.00 in 77 W/m2
17:34 86.0 °F 71.0 °F 29.88 in Calm     61% 0.00 in 186 W/m2
17:40 84.7 °F 72.5 °F 29.88 in Calm     67% 0.00 in 77 W/m2
17:46 83.8 °F 72.5 °F 29.88 in Calm     69% 0.00 in 151 W/m2
17:52 83.3 °F 72.5 °F 29.88 in Calm     70% 0.00 in 118 W/m2
17:58 82.5 °F 72.6 °F 29.88 in Calm     72% 0.00 in 69 W/m2
18:04 81.8 °F 72.3 °F 29.88 in Calm     73% 0.00 in 58 W/m2
18:10 81.4 °F 72.7 °F 29.88 in Calm     75% 0.00 in 28 W/m2
18:16 80.8 °F 72.1 °F 29.88 in Calm     75% 0.00 in 25 W/m2
18:22 80.0 °F 71.8 °F 29.88 in Calm     76% 0.00 in 21 W/m2
18:28 79.0 °F 71.6 °F 29.88 in Calm     78% 0.00 in 18 W/m2
18:34 78.3 °F 71.2 °F 29.88 in Calm     79% 0.00 in 14 W/m2
18:40 77.5 °F 70.8 °F 29.88 in Calm     80% 0.00 in 11 W/m2
18:46 77.0 °F 70.7 °F 29.88 in Calm     81% 0.00 in 7 W/m2
18:52 76.5 °F 70.2 °F 29.88 in Calm     81% 0.00 in 5 W/m2
18:58 76.0 °F 70.1 °F 29.88 in Calm     82% 0.00 in 0 W/m2
19:04 75.7 °F 69.8 °F 29.88 in Calm     82% 0.00 in 0 W/m2
19:10 75.4 °F 69.5 °F 29.88 in Calm     82% 0.00 in 0 W/m2
19:16 75.0 °F 69.5 °F 29.88 in Calm     83% 0.00 in 0 W/m2
19:22 74.5 °F 69.3 °F 29.88 in Calm     84% 0.00 in 0 W/m2
19:24 74.4 °F 69.2 °F 29.88 in Calm     84% 0.00 in 0 W/m2
19:30 74.0 °F 68.9 °F 29.88 in Calm     84% 0.00 in 0 W/m2
19:36 73.7 °F 68.6 °F 29.88 in Calm     84% 0.00 in 0 W/m2
19:42 73.3 °F 68.5 °F 29.88 in Calm     85% 0.00 in 0 W/m2
19:48 72.9 °F 68.1 °F 29.88 in Calm     85% 0.00 in 0 W/m2
19:54 72.7 °F 67.9 °F 29.88 in Calm     85% 0.00 in 0 W/m2
20:00 72.4 °F 67.6 °F 29.88 in Calm     85% 0.00 in 0 W/m2
20:06 72.2 °F 67.8 °F 29.89 in Calm     86% 0.00 in 0 W/m2
20:12 71.8 °F 67.4 °F 29.89 in Calm     86% 0.00 in 0 W/m2
20:18 71.6 °F 67.5 °F 29.89 in Calm     87% 0.00 in 0 W/m2
20:24 71.4 °F 67.3 °F 29.89 in Calm     87% 0.00 in 0 W/m2
20:30 71.1 °F 67.0 °F 29.89 in Calm     87% 0.00 in 0 W/m2
20:36 70.8 °F 66.7 °F 29.89 in Calm     87% 0.00 in 0 W/m2
20:42 70.5 °F 66.8 °F 29.89 in Calm     88% 0.00 in 0 W/m2
20:48 70.4 °F 66.7 °F 29.89 in Calm     88% 0.00 in 0 W/m2
20:54 70.2 °F 66.5 °F 29.89 in Calm     88% 0.00 in 0 W/m2
21:00 70.0 °F 66.6 °F 29.89 in Calm     89% 0.00 in 0 W/m2
21:06 69.8 °F 66.4 °F 29.88 in Calm     89% 0.00 in 0 W/m2
21:12 69.7 °F 66.3 °F 29.88 in Calm     89% 0.00 in 0 W/m2
21:18 69.5 °F 66.1 °F 29.89 in Calm     89% 0.00 in 0 W/m2
21:24 69.3 °F 66.2 °F 29.89 in Calm     90% 0.00 in 0 W/m2
21:30 69.2 °F 66.1 °F 29.89 in Calm     90% 0.00 in 0 W/m2
21:36 69.2 °F 66.1 °F 29.89 in Calm     90% 0.00 in 0 W/m2
21:42 69.0 °F 65.9 °F 29.89 in Calm     90% 0.00 in 0 W/m2
21:48 68.7 °F 66.0 °F 29.89 in Calm     91% 0.00 in 0 W/m2
21:56 68.5 °F 65.8 °F 29.89 in Calm     91% 0.00 in 0 W/m2
22:02 68.3 °F 65.6 °F 29.89 in Calm     91% 0.00 in 0 W/m2
22:08 68.3 °F 65.6 °F 29.89 in Calm     91% 0.00 in 0 W/m2
22:14 68.3 °F 65.6 °F 29.89 in Calm     91% 0.00 in 0 W/m2
22:20 68.3 °F 65.6 °F 29.89 in Calm     91% 0.00 in 0 W/m2
22:26 68.2 °F 65.8 °F 29.89 in Calm     92% 0.00 in 0 W/m2
22:32 68.0 °F 65.6 °F 29.89 in Calm     92% 0.00 in 0 W/m2
22:38 67.9 °F 65.5 °F 29.89 in Calm     92% 0.00 in 0 W/m2
22:46 67.7 °F 65.3 °F 29.89 in Calm     92% 0.00 in 0 W/m2
22:52 67.7 °F 65.3 °F 29.89 in Calm     92% 0.00 in 0 W/m2
22:58 67.6 °F 65.2 °F 29.89 in Calm     92% 0.00 in 0 W/m2
23:04 67.4 °F 65.0 °F 29.89 in Calm     92% 0.00 in 0 W/m2
23:10 67.2 °F 64.8 °F 29.89 in Calm     92% 0.00 in 0 W/m2
23:16 67.2 °F 64.8 °F 29.88 in Calm     92% 0.00 in 0 W/m2
23:22 67.2 °F 64.8 °F 29.88 in Calm     92% 0.00 in 0 W/m2
23:30 67.1 °F 64.7 °F 29.88 in Calm     92% 0.00 in 0 W/m2
23:36 67.0 °F 64.9 °F 29.88 in Calm     93% 0.00 in 0 W/m2
23:42 66.9 °F 64.8 °F 29.88 in Calm     93% 0.00 in 0 W/m2
23:48 66.9 °F 64.8 °F 29.88 in Calm     93% 0.00 in 0 W/m2
23:54 66.9 °F 64.8 °F 29.88 in Calm     93% 0.00 in 0 W/m2
23:58 66.9 °F 64.8 °F 29.88 in Calm     93% 0.00 in 0 W/m2
Country Meadow, Clay, NY, USA
Compliments of Weather Underground - 2 mb